createdAt,value
2017-08-20T00:00:55.644Z,0
2017-08-20T00:02:08.005Z,0
2017-08-20T00:03:20.291Z,0
2017-08-20T00:04:32.322Z,0
2017-08-20T00:05:44.559Z,0
2017-08-20T00:06:56.822Z,0
2017-08-20T00:08:09.411Z,0
2017-08-20T00:09:22.038Z,0
2017-08-20T00:10:34.625Z,0
2017-08-20T00:11:46.919Z,0
2017-08-20T00:12:59.525Z,0
2017-08-20T00:14:12.120Z,0
2017-08-20T00:15:24.396Z,0
2017-08-20T00:16:36.713Z,0
2017-08-20T00:17:48.999Z,0
2017-08-20T00:19:01.305Z,0
2017-08-20T00:20:13.535Z,0
2017-08-20T00:21:26.131Z,0
2017-08-20T00:22:38.725Z,0
2017-08-20T00:23:50.396Z,0
2017-08-20T00:25:03.057Z,0
2017-08-20T00:26:15.039Z,0
2017-08-20T00:27:27.680Z,0
2017-08-20T00:28:40.266Z,0
2017-08-20T00:29:51.895Z,0
2017-08-20T00:31:04.185Z,0
2017-08-20T00:32:16.813Z,0
2017-08-20T00:33:29.468Z,0
2017-08-20T00:34:42.102Z,0
2017-08-20T00:35:54.674Z,0
2017-08-20T00:37:06.990Z,0
2017-08-20T00:38:19.542Z,0
2017-08-20T00:39:31.853Z,0
2017-08-20T00:40:43.873Z,0
2017-08-20T00:41:56.487Z,0
2017-08-20T00:43:08.814Z,0
2017-08-20T00:44:21.386Z,0
2017-08-20T00:45:33.681Z,0
2017-08-20T00:46:45.713Z,0
2017-08-20T00:47:58.047Z,0
2017-08-20T00:49:10.322Z,0
2017-08-20T00:50:23.188Z,0
2017-08-20T00:51:35.512Z,0
2017-08-20T00:52:47.515Z,0
2017-08-20T00:53:59.825Z,0
2017-08-20T00:55:12.071Z,0
2017-08-20T00:56:24.624Z,0
2017-08-20T00:57:37.205Z,0
2017-08-20T00:58:49.436Z,0
2017-08-20T01:00:02.058Z,0
2017-08-20T01:01:14.650Z,0
2017-08-20T01:02:26.905Z,0
2017-08-20T01:03:39.520Z,0
2017-08-20T01:04:51.773Z,0
2017-08-20T01:06:04.108Z,0
2017-08-20T01:07:16.664Z,0
2017-08-20T01:08:29.286Z,0
2017-08-20T01:09:41.918Z,0
2017-08-20T01:10:54.516Z,0
2017-08-20T01:12:06.963Z,0
2017-08-20T01:13:19.554Z,0
2017-08-20T01:14:32.151Z,0
2017-08-20T01:15:44.690Z,0
2017-08-20T01:16:56.925Z,0
2017-08-20T01:18:08.605Z,0
2017-08-20T01:19:21.222Z,0
2017-08-20T01:20:33.481Z,0
2017-08-20T01:21:45.154Z,0
2017-08-20T01:22:57.988Z,0
2017-08-20T01:24:10.542Z,0
2017-08-20T01:25:22.812Z,0
2017-08-20T01:26:35.321Z,0
2017-08-20T01:27:47.931Z,0
2017-08-20T01:29:00.523Z,0
2017-08-20T01:30:12.548Z,0
2017-08-20T01:31:25.152Z,0
2017-08-20T01:32:37.804Z,0
2017-08-20T01:33:50.418Z,0
2017-08-20T01:35:03.028Z,0
2017-08-20T01:36:15.299Z,0
2017-08-20T01:37:27.636Z,0
2017-08-20T01:38:40.141Z,0
2017-08-20T01:39:52.738Z,0
2017-08-20T01:41:05.005Z,0
2017-08-20T01:42:17.593Z,0
2017-08-20T01:43:30.133Z,0
2017-08-20T01:44:42.723Z,0
2017-08-20T01:45:55.067Z,0
2017-08-20T01:47:07.616Z,0
2017-08-20T01:48:20.261Z,0
2017-08-20T01:49:32.550Z,0
2017-08-20T01:50:44.849Z,0
2017-08-20T01:51:57.094Z,0
2017-08-20T01:53:09.693Z,0
2017-08-20T01:54:22.245Z,0
2017-08-20T01:55:34.753Z,0
2017-08-20T01:56:47.029Z,0
2017-08-20T01:57:59.073Z,0
2017-08-20T01:59:11.716Z,0
2017-08-20T02:00:24.335Z,0
2017-08-20T02:01:36.912Z,0
2017-08-20T02:02:49.475Z,0
2017-08-20T02:04:02.033Z,0
2017-08-20T02:05:14.386Z,0
2017-08-20T02:06:27.244Z,0
2017-08-20T02:07:39.515Z,0
2017-08-20T02:08:51.533Z,0
2017-08-20T02:10:03.826Z,0
2017-08-20T02:11:16.385Z,0
2017-08-20T02:12:28.728Z,0
2017-08-20T02:13:40.738Z,0
2017-08-20T02:14:53.269Z,0
2017-08-20T02:16:05.213Z,0
2017-08-20T02:17:17.827Z,0
2017-08-20T02:18:30.468Z,0
2017-08-20T02:19:42.818Z,0
2017-08-20T02:20:55.414Z,0
2017-08-20T02:22:07.745Z,0
2017-08-20T02:23:20.355Z,0
2017-08-20T02:24:32.898Z,0
2017-08-20T02:25:45.450Z,0
2017-08-20T02:26:58.043Z,0
2017-08-20T02:28:10.642Z,0
2017-08-20T02:29:23.237Z,0
2017-08-20T02:30:35.202Z,0
2017-08-20T02:31:47.524Z,0
2017-08-20T02:33:00.146Z,0
2017-08-20T02:34:12.181Z,0
2017-08-20T02:35:24.426Z,0
2017-08-20T02:36:36.664Z,0
2017-08-20T02:37:48.637Z,0
2017-08-20T02:39:01.497Z,0
2017-08-20T02:40:14.110Z,0
2017-08-20T02:41:26.639Z,0
2017-08-20T02:42:38.865Z,0
2017-08-20T02:43:50.520Z,0
2017-08-20T02:45:03.104Z,0
2017-08-20T02:46:14.726Z,0
2017-08-20T02:47:26.690Z,0
2017-08-20T02:48:38.928Z,0
2017-08-20T02:49:51.235Z,0
2017-08-20T02:51:03.836Z,0
2017-08-20T02:52:16.466Z,0
2017-08-20T02:53:28.420Z,0
2017-08-20T02:54:40.097Z,0
2017-08-20T02:55:52.690Z,0
2017-08-20T02:57:04.907Z,0
2017-08-20T02:58:16.894Z,0
2017-08-20T02:59:29.459Z,0
2017-08-20T03:00:42.025Z,0
2017-08-20T03:01:54.650Z,0
2017-08-20T03:03:07.288Z,0
2017-08-20T03:04:19.855Z,0
2017-08-20T03:05:32.407Z,0
2017-08-20T03:06:45.041Z,0
2017-08-20T03:07:57.018Z,0
2017-08-20T03:09:09.621Z,0
2017-08-20T03:10:22.244Z,0
2017-08-20T03:11:34.856Z,0
2017-08-20T03:12:47.143Z,0
2017-08-20T03:13:59.422Z,0
2017-08-20T03:15:11.966Z,0
2017-08-20T03:16:24.262Z,0
2017-08-20T03:17:36.868Z,0
2017-08-20T03:18:48.839Z,0
2017-08-20T03:20:01.348Z,0
2017-08-20T03:21:13.369Z,0
2017-08-20T03:22:25.933Z,0
2017-08-20T03:23:38.215Z,0
2017-08-20T03:24:50.207Z,0
2017-08-20T03:26:02.802Z,0
2017-08-20T03:27:15.121Z,0
2017-08-20T03:28:27.681Z,0
2017-08-20T03:29:40.238Z,0
2017-08-20T03:30:52.802Z,0
2017-08-20T03:32:05.041Z,0
2017-08-20T03:33:17.375Z,0
2017-08-20T03:34:29.921Z,0
2017-08-20T03:35:42.492Z,0
2017-08-20T03:36:54.773Z,0
2017-08-20T03:38:06.751Z,0
2017-08-20T03:39:19.305Z,0
2017-08-20T03:40:31.298Z,0
2017-08-20T03:41:43.846Z,0
2017-08-20T03:42:56.443Z,0
2017-08-20T03:44:09.020Z,0
2017-08-20T03:45:21.606Z,0
2017-08-20T03:46:34.178Z,0
2017-08-20T03:47:46.811Z,0
2017-08-20T03:48:59.696Z,0
2017-08-20T03:50:11.668Z,0
2017-08-20T03:51:24.228Z,0
2017-08-20T03:52:36.437Z,5
2017-08-20T03:53:48.788Z,5
2017-08-20T03:55:01.373Z,5
2017-08-20T03:56:13.641Z,5
2017-08-20T03:57:25.888Z,5
2017-08-20T03:58:38.477Z,5
2017-08-20T03:59:50.765Z,5
2017-08-20T04:01:03.376Z,5
2017-08-20T04:02:15.612Z,10
2017-08-20T04:03:28.192Z,10
2017-08-20T04:04:40.492Z,10
2017-08-20T04:05:52.808Z,10
2017-08-20T04:07:05.062Z,10
2017-08-20T04:08:17.683Z,10
2017-08-20T04:09:29.646Z,15
2017-08-20T04:10:42.288Z,15
2017-08-20T04:11:54.589Z,15
2017-08-20T04:13:07.182Z,15
2017-08-20T04:14:19.752Z,15
2017-08-20T04:15:32.272Z,15
2017-08-20T04:16:44.886Z,20
2017-08-20T04:17:57.449Z,20
2017-08-20T04:19:09.763Z,20
2017-08-20T04:20:22.366Z,20
2017-08-20T04:21:34.993Z,20
2017-08-20T04:22:47.007Z,25
2017-08-20T04:23:59.347Z,25
2017-08-20T04:25:11.345Z,25
2017-08-20T04:26:23.934Z,30
2017-08-20T04:27:36.580Z,30
2017-08-20T04:28:48.890Z,30
2017-08-20T04:30:01.449Z,30
2017-08-20T04:31:13.739Z,30
2017-08-20T04:32:26.564Z,30
2017-08-20T04:33:39.174Z,35
2017-08-20T04:34:51.476Z,35
2017-08-20T04:36:03.454Z,35
2017-08-20T04:37:15.995Z,40
2017-08-20T04:38:28.567Z,40
2017-08-20T04:39:40.865Z,40
2017-08-20T04:40:52.885Z,40
2017-08-20T04:42:05.486Z,45
2017-08-20T04:43:17.484Z,45
2017-08-20T04:44:29.785Z,45
2017-08-20T04:45:42.013Z,45
2017-08-20T04:46:54.585Z,50
2017-08-20T04:48:06.810Z,50
2017-08-20T04:49:19.388Z,50
2017-08-20T04:50:31.718Z,50
2017-08-20T04:51:43.677Z,55
2017-08-20T04:52:55.937Z,55
2017-08-20T04:54:08.214Z,55
2017-08-20T04:55:20.778Z,55
2017-08-20T04:56:33.334Z,60
2017-08-20T04:57:45.325Z,60
2017-08-20T04:58:57.867Z,60
2017-08-20T05:00:10.170Z,65
2017-08-20T05:01:22.850Z,65
2017-08-20T05:02:35.129Z,65
2017-08-20T05:03:47.358Z,70
2017-08-20T05:04:59.969Z,70
2017-08-20T05:06:12.556Z,70
2017-08-20T05:07:25.159Z,70
2017-08-20T05:08:37.723Z,75
2017-08-20T05:09:50.308Z,75
2017-08-20T05:11:02.940Z,75
2017-08-20T05:12:15.199Z,80
2017-08-20T05:13:27.447Z,80
2017-08-20T05:14:39.726Z,85
2017-08-20T05:15:52.071Z,85
2017-08-20T05:17:04.601Z,85
2017-08-20T05:18:16.819Z,90
2017-08-20T05:19:29.107Z,90
2017-08-20T05:20:41.685Z,95
2017-08-20T05:21:53.642Z,95
2017-08-20T05:23:05.980Z,95
2017-08-20T05:24:18.555Z,100
2017-08-20T05:25:30.846Z,100
2017-08-20T05:26:42.825Z,100
2017-08-20T05:27:55.084Z,105
2017-08-20T05:29:07.684Z,105
2017-08-20T05:30:20.030Z,110
2017-08-20T05:31:32.636Z,110
2017-08-20T05:32:44.647Z,115
2017-08-20T05:33:57.200Z,115
2017-08-20T05:35:09.764Z,120
2017-08-20T05:36:22.387Z,120
2017-08-20T05:37:34.361Z,125
2017-08-20T05:38:46.664Z,125
2017-08-20T05:39:59.265Z,130
2017-08-20T05:41:11.537Z,130
2017-08-20T05:42:24.066Z,130
2017-08-20T05:43:36.683Z,135
2017-08-20T05:44:49.016Z,135
2017-08-20T05:46:00.973Z,140
2017-08-20T05:47:13.566Z,140
2017-08-20T05:48:26.114Z,145
2017-08-20T05:49:38.422Z,145
2017-08-20T05:50:50.695Z,150
2017-08-20T05:52:03.275Z,150
2017-08-20T05:53:15.254Z,150
2017-08-20T05:54:27.869Z,150
2017-08-20T05:55:40.463Z,150
2017-08-20T05:56:52.505Z,155
2017-08-20T05:58:05.102Z,155
2017-08-20T05:59:17.034Z,160
2017-08-20T06:00:29.321Z,175
2017-08-20T06:01:41.641Z,200
2017-08-20T06:02:53.594Z,225
2017-08-20T06:04:05.529Z,255
2017-08-20T06:05:17.800Z,240
2017-08-20T06:06:30.373Z,210
2017-08-20T06:07:43.007Z,190
2017-08-20T06:08:55.616Z,190
2017-08-20T06:10:08.237Z,175
2017-08-20T06:11:20.813Z,180
2017-08-20T06:12:33.051Z,180
2017-08-20T06:13:45.595Z,190
2017-08-20T06:14:57.869Z,185
2017-08-20T06:16:10.160Z,190
2017-08-20T06:17:22.807Z,195
2017-08-20T06:18:35.106Z,200
2017-08-20T06:19:47.683Z,210
2017-08-20T06:21:00.343Z,225
2017-08-20T06:22:12.606Z,230
2017-08-20T06:23:24.943Z,240
2017-08-20T06:24:37.256Z,250
2017-08-20T06:25:49.534Z,340
2017-08-20T06:27:02.151Z,405
2017-08-20T06:28:14.443Z,410
2017-08-20T06:29:27.040Z,410
2017-08-20T06:30:39.295Z,415
2017-08-20T06:31:51.044Z,435
2017-08-20T06:33:03.625Z,490
2017-08-20T06:34:15.888Z,545
2017-08-20T06:35:27.852Z,630
2017-08-20T06:36:40.465Z,655
2017-08-20T06:37:53.006Z,675
2017-08-20T06:39:05.314Z,670
2017-08-20T06:40:17.585Z,670
2017-08-20T06:41:29.908Z,725
2017-08-20T06:42:42.216Z,770
2017-08-20T06:43:54.486Z,770
2017-08-20T06:45:07.032Z,770
2017-08-20T06:46:19.652Z,770
2017-08-20T06:47:32.276Z,775
2017-08-20T06:48:44.918Z,780
2017-08-20T06:49:57.538Z,790
2017-08-20T06:51:10.147Z,810
2017-08-20T06:52:22.743Z,805
2017-08-20T06:53:35.327Z,790
2017-08-20T06:54:47.646Z,785
2017-08-20T06:56:00.274Z,780
2017-08-20T06:57:12.573Z,785
2017-08-20T06:58:24.833Z,770
2017-08-20T06:59:37.083Z,770
2017-08-20T07:00:49.605Z,775
2017-08-20T07:02:02.243Z,765
2017-08-20T07:03:14.553Z,810
2017-08-20T07:04:27.423Z,810
2017-08-20T07:05:39.760Z,820
2017-08-20T07:06:52.096Z,810
2017-08-20T07:08:04.680Z,820
2017-08-20T07:09:17.025Z,850
2017-08-20T07:10:29.622Z,900
2017-08-20T07:11:42.259Z,920
2017-08-20T07:12:54.517Z,940
2017-08-20T07:14:06.503Z,965
2017-08-20T07:15:19.050Z,995
2017-08-20T07:16:31.617Z,1005
2017-08-20T07:17:43.891Z,1050
2017-08-20T07:18:56.212Z,1105
2017-08-20T07:20:08.767Z,1025
2017-08-20T07:21:21.376Z,1015
2017-08-20T07:22:34.034Z,1020
2017-08-20T07:23:46.003Z,1025
2017-08-20T07:24:58.693Z,1050
2017-08-20T07:26:11.333Z,1095
2017-08-20T07:27:23.897Z,1145
2017-08-20T07:28:36.449Z,1215
2017-08-20T07:29:48.745Z,1235
2017-08-20T07:31:00.994Z,1205
2017-08-20T07:32:13.562Z,1215
2017-08-20T07:33:26.168Z,1225
2017-08-20T07:34:38.503Z,1205
2017-08-20T07:35:51.152Z,1195
2017-08-20T07:37:03.792Z,1235
2017-08-20T07:38:16.138Z,1255
2017-08-20T07:39:28.361Z,1260
2017-08-20T07:40:40.966Z,1280
2017-08-20T07:41:52.651Z,1335
2017-08-20T07:43:05.206Z,1330
2017-08-20T07:44:17.818Z,1385
2017-08-20T07:45:30.439Z,1385
2017-08-20T07:46:42.984Z,1310
2017-08-20T07:47:55.231Z,1300
2017-08-20T07:49:07.801Z,1365
2017-08-20T07:50:20.056Z,1410
2017-08-20T07:51:32.025Z,1455
2017-08-20T07:52:44.337Z,1390
2017-08-20T07:53:56.939Z,1380
2017-08-20T07:55:09.328Z,1470
2017-08-20T07:56:21.614Z,1560
2017-08-20T07:57:33.897Z,1475
2017-08-20T07:58:46.591Z,1545
2017-08-20T07:59:58.514Z,1625
2017-08-20T08:01:11.113Z,1675
2017-08-20T08:02:23.402Z,1620
2017-08-20T08:03:35.721Z,1625
2017-08-20T08:04:48.036Z,1785
2017-08-20T08:06:00.664Z,1905
2017-08-20T08:07:13.310Z,1215
2017-08-20T08:08:25.572Z,655
2017-08-20T08:09:38.183Z,685
2017-08-20T08:10:50.238Z,690
2017-08-20T08:12:02.535Z,665
2017-08-20T08:13:14.867Z,640
2017-08-20T08:14:27.541Z,620
2017-08-20T08:15:39.805Z,585
2017-08-20T08:16:52.086Z,595
2017-08-20T08:18:04.771Z,635
2017-08-20T08:19:17.367Z,640
2017-08-20T08:20:29.679Z,570
2017-08-20T08:21:41.691Z,545
2017-08-20T08:22:53.678Z,515
2017-08-20T08:24:05.998Z,550
2017-08-20T08:25:18.546Z,605
2017-08-20T08:26:30.534Z,475
2017-08-20T08:27:43.147Z,360
2017-08-20T08:28:55.460Z,380
2017-08-20T08:30:07.802Z,395
2017-08-20T08:31:20.049Z,390
2017-08-20T08:32:32.668Z,375
2017-08-20T08:33:45.247Z,350
2017-08-20T08:34:57.595Z,365
2017-08-20T08:36:10.216Z,370
2017-08-20T08:37:22.869Z,390
2017-08-20T08:38:35.471Z,440
2017-08-20T08:39:48.070Z,470
2017-08-20T08:41:00.624Z,445
2017-08-20T08:42:13.540Z,395
2017-08-20T08:43:25.565Z,400
2017-08-20T08:44:38.207Z,445
2017-08-20T08:45:50.501Z,460
2017-08-20T08:47:03.077Z,405
2017-08-20T08:48:15.397Z,430
2017-08-20T08:49:28.039Z,425
2017-08-20T08:50:40.618Z,405
2017-08-20T08:51:53.279Z,415
2017-08-20T08:53:05.870Z,405
2017-08-20T08:54:17.882Z,390
2017-08-20T08:55:30.534Z,385
2017-08-20T08:56:42.224Z,400
2017-08-20T08:57:54.732Z,465
2017-08-20T08:59:07.325Z,570
2017-08-20T09:00:19.953Z,585
2017-08-20T09:01:31.942Z,540
2017-08-20T09:02:43.966Z,550
2017-08-20T09:03:56.579Z,605
2017-08-20T09:05:08.851Z,720
2017-08-20T09:06:20.847Z,795
2017-08-20T09:07:33.145Z,785
2017-08-20T09:08:45.797Z,820
2017-08-20T09:09:58.346Z,815
2017-08-20T09:11:10.939Z,705
2017-08-20T09:12:23.571Z,685
2017-08-20T09:13:35.281Z,665
2017-08-20T09:14:47.891Z,700
2017-08-20T09:16:00.564Z,525
2017-08-20T09:17:13.166Z,395
2017-08-20T09:18:25.478Z,340
2017-08-20T09:19:37.148Z,245
2017-08-20T09:20:49.469Z,185
2017-08-20T09:22:02.028Z,200
2017-08-20T09:23:14.588Z,240
2017-08-20T09:24:26.863Z,280
2017-08-20T09:25:39.404Z,330
2017-08-20T09:26:51.125Z,390
2017-08-20T09:28:03.404Z,390
2017-08-20T09:29:15.981Z,355
2017-08-20T09:30:28.521Z,315
2017-08-20T09:31:40.796Z,300
2017-08-20T09:32:53.103Z,300
2017-08-20T09:34:05.458Z,335
2017-08-20T09:35:18.179Z,415
2017-08-20T09:36:30.754Z,525
2017-08-20T09:37:42.989Z,610
2017-08-20T09:38:54.985Z,720
2017-08-20T09:40:07.528Z,805
2017-08-20T09:41:20.128Z,770
2017-08-20T09:42:32.717Z,740
2017-08-20T09:43:45.047Z,825
2017-08-20T09:44:57.072Z,775
2017-08-20T09:46:09.028Z,760
2017-08-20T09:47:21.249Z,725
2017-08-20T09:48:33.831Z,680
2017-08-20T09:49:46.097Z,630
2017-08-20T09:50:58.402Z,550
2017-08-20T09:52:10.328Z,570
2017-08-20T09:53:22.675Z,615
2017-08-20T09:54:34.620Z,635
2017-08-20T09:55:47.234Z,645
2017-08-20T09:56:59.830Z,645
2017-08-20T09:58:12.116Z,665
2017-08-20T09:59:24.707Z,725
2017-08-20T10:00:36.953Z,825
2017-08-20T10:01:49.220Z,940
2017-08-20T10:03:01.527Z,985
2017-08-20T10:04:14.143Z,945
2017-08-20T10:05:26.107Z,1005
2017-08-20T10:06:38.734Z,1025
2017-08-20T10:07:51.416Z,1005
2017-08-20T10:09:04.014Z,975
2017-08-20T10:10:15.948Z,1085
2017-08-20T10:11:28.198Z,1150
2017-08-20T10:12:40.459Z,765
2017-08-20T10:13:52.770Z,605
2017-08-20T10:15:05.386Z,570
2017-08-20T10:16:18.023Z,560
2017-08-20T10:17:30.566Z,555
2017-08-20T10:18:43.159Z,530
2017-08-20T10:19:55.699Z,555
2017-08-20T10:21:08.309Z,550
2017-08-20T10:22:20.572Z,550
2017-08-20T10:23:32.821Z,570
2017-08-20T10:24:44.812Z,610
2017-08-20T10:25:57.457Z,680
2017-08-20T10:27:10.157Z,735
2017-08-20T10:28:22.400Z,895
2017-08-20T10:29:34.393Z,1125
2017-08-20T10:30:46.671Z,1065
2017-08-20T10:31:59.279Z,1090
2017-08-20T10:33:11.513Z,2685
2017-08-20T10:34:23.852Z,3135
2017-08-20T10:35:36.179Z,2190
2017-08-20T10:36:48.844Z,1465
2017-08-20T10:38:01.168Z,1515
2017-08-20T10:39:13.767Z,1290
2017-08-20T10:40:26.097Z,3625
2017-08-20T10:41:38.056Z,2290
2017-08-20T10:42:50.374Z,2580
2017-08-20T10:44:02.979Z,3600
2017-08-20T10:45:15.249Z,1935
2017-08-20T10:46:27.546Z,3095
2017-08-20T10:47:39.853Z,1040
2017-08-20T10:48:51.574Z,1040
2017-08-20T10:50:03.546Z,635
2017-08-20T10:51:16.183Z,605
2017-08-20T10:52:28.422Z,1750
2017-08-20T10:53:40.789Z,1320
2017-08-20T10:54:53.414Z,880
2017-08-20T10:56:05.723Z,1790
2017-08-20T10:57:18.000Z,1660
2017-08-20T10:58:30.629Z,705
2017-08-20T10:59:42.591Z,775
2017-08-20T11:00:54.609Z,700
2017-08-20T11:02:06.880Z,840
2017-08-20T11:03:19.158Z,795
2017-08-20T11:04:31.796Z,855
2017-08-20T11:05:44.371Z,1020
2017-08-20T11:06:56.985Z,1060
2017-08-20T11:08:09.582Z,1160
2017-08-20T11:09:21.852Z,1040
2017-08-20T11:10:34.111Z,3065
2017-08-20T11:11:46.805Z,1945
2017-08-20T11:12:59.091Z,1205
2017-08-20T11:14:10.774Z,955
2017-08-20T11:15:23.355Z,1035
2017-08-20T11:16:35.680Z,970
2017-08-20T11:17:48.287Z,1095
2017-08-20T11:19:00.567Z,1110
2017-08-20T11:20:13.458Z,1270
2017-08-20T11:21:25.710Z,1545
2017-08-20T11:22:38.304Z,1625
2017-08-20T11:23:50.583Z,3920
2017-08-20T11:25:02.897Z,1750
2017-08-20T11:26:15.232Z,4845
2017-08-20T11:27:27.213Z,2690
2017-08-20T11:28:39.162Z,3755
2017-08-20T11:29:51.800Z,5435
2017-08-20T11:31:04.097Z,5815
2017-08-20T11:32:16.378Z,6090
2017-08-20T11:33:28.681Z,5700
2017-08-20T11:34:40.686Z,5930
2017-08-20T11:35:52.660Z,5800
2017-08-20T11:37:04.946Z,5545
2017-08-20T11:38:17.247Z,5325
2017-08-20T11:39:29.234Z,5250
2017-08-20T11:40:41.815Z,5805
2017-08-20T11:41:54.419Z,5970
2017-08-20T11:43:07.028Z,5735
2017-08-20T11:44:18.986Z,5465
2017-08-20T11:45:31.262Z,5860
2017-08-20T11:46:43.517Z,5765
2017-08-20T11:47:55.537Z,2225
2017-08-20T11:49:08.131Z,635
2017-08-20T11:50:20.505Z,4190
2017-08-20T11:51:32.801Z,4230
2017-08-20T11:52:45.168Z,5795
2017-08-20T11:53:57.176Z,1885
2017-08-20T11:55:09.542Z,5295
2017-08-20T11:56:22.231Z,5510
2017-08-20T11:57:34.550Z,5755
2017-08-20T11:58:47.103Z,5310
2017-08-20T11:59:58.810Z,4795
2017-08-20T12:01:11.400Z,5015
2017-08-20T12:02:23.459Z,4525
2017-08-20T12:03:35.708Z,4775
2017-08-20T12:04:48.026Z,4985
2017-08-20T12:06:00.024Z,5425
2017-08-20T12:07:11.970Z,5750
2017-08-20T12:08:24.286Z,5410
2017-08-20T12:09:36.582Z,5145
2017-08-20T12:10:48.571Z,5265
2017-08-20T12:12:00.824Z,5755
2017-08-20T12:13:13.395Z,5865
2017-08-20T12:14:25.971Z,5400
2017-08-20T12:15:38.539Z,5390
2017-08-20T12:16:50.864Z,5235
2017-08-20T12:18:03.152Z,5130
2017-08-20T12:19:15.422Z,4880
2017-08-20T12:20:27.426Z,1160
2017-08-20T12:21:40.025Z,655
2017-08-20T12:22:52.392Z,2115
2017-08-20T12:24:04.385Z,4775
2017-08-20T12:25:16.661Z,4245
2017-08-20T12:26:28.929Z,4505
2017-08-20T12:27:41.195Z,4550
2017-08-20T12:28:53.872Z,4685
2017-08-20T12:30:06.519Z,1035
2017-08-20T12:31:18.780Z,4760
2017-08-20T12:32:30.737Z,4545
2017-08-20T12:33:42.470Z,4400
2017-08-20T12:34:54.759Z,4555
2017-08-20T12:36:06.768Z,4275
2017-08-20T12:37:19.310Z,3975
2017-08-20T12:38:30.968Z,4325
2017-08-20T12:39:43.273Z,4200
2017-08-20T12:40:55.295Z,4205
2017-08-20T12:42:07.594Z,4825
2017-08-20T12:43:20.219Z,4070
2017-08-20T12:44:32.846Z,4560
2017-08-20T12:45:45.178Z,3805
2017-08-20T12:46:57.773Z,3555
2017-08-20T12:48:09.725Z,3925
2017-08-20T12:49:22.063Z,4365
2017-08-20T12:50:34.373Z,2520
2017-08-20T12:51:46.972Z,730
2017-08-20T12:52:59.543Z,4125
2017-08-20T12:54:12.121Z,575
2017-08-20T12:55:24.433Z,520
2017-08-20T12:56:36.723Z,4370
2017-08-20T12:57:49.286Z,4600
2017-08-20T12:59:01.884Z,4190
2017-08-20T13:00:14.510Z,3680
2017-08-20T13:01:26.838Z,2605
2017-08-20T13:02:39.149Z,2770
2017-08-20T13:03:51.136Z,4150
2017-08-20T13:05:03.421Z,3700
2017-08-20T13:06:16.039Z,2755
2017-08-20T13:07:28.667Z,1565
2017-08-20T13:08:41.282Z,470
2017-08-20T13:09:53.598Z,445
2017-08-20T13:11:06.172Z,405
2017-08-20T13:12:18.837Z,405
2017-08-20T13:13:31.177Z,405
2017-08-20T13:14:43.488Z,395
2017-08-20T13:15:55.248Z,385
2017-08-20T13:17:07.546Z,390
2017-08-20T13:18:19.846Z,380
2017-08-20T13:19:32.169Z,400
2017-08-20T13:20:44.559Z,420
2017-08-20T13:21:57.122Z,435
2017-08-20T13:23:09.096Z,400
2017-08-20T13:24:21.699Z,375
2017-08-20T13:25:34.045Z,370
2017-08-20T13:26:46.705Z,370
2017-08-20T13:27:58.711Z,375
2017-08-20T13:29:10.699Z,365
2017-08-20T13:30:22.739Z,380
2017-08-20T13:31:35.078Z,390
2017-08-20T13:32:47.031Z,470
2017-08-20T13:33:59.356Z,480
2017-08-20T13:35:11.973Z,455
2017-08-20T13:36:24.335Z,420
2017-08-20T13:37:36.604Z,420
2017-08-20T13:38:48.684Z,380
2017-08-20T13:40:01.298Z,365
2017-08-20T13:41:13.895Z,350
2017-08-20T13:42:26.503Z,345
2017-08-20T13:43:39.132Z,350
2017-08-20T13:44:51.137Z,765
2017-08-20T13:46:03.771Z,1005
2017-08-20T13:47:16.071Z,730
2017-08-20T13:48:28.354Z,375
2017-08-20T13:49:40.296Z,355
2017-08-20T13:50:52.844Z,370
2017-08-20T13:52:05.470Z,360
2017-08-20T13:53:17.438Z,370
2017-08-20T13:54:29.480Z,395
2017-08-20T13:55:41.752Z,420
2017-08-20T13:56:54.050Z,390
2017-08-20T13:58:06.694Z,385
2017-08-20T13:59:19.213Z,400
2017-08-20T14:00:31.767Z,420
2017-08-20T14:01:44.433Z,400
2017-08-20T14:02:57.055Z,410
2017-08-20T14:04:09.620Z,390
2017-08-20T14:05:21.570Z,435
2017-08-20T14:06:34.184Z,450
2017-08-20T14:07:46.770Z,395
2017-08-20T14:08:58.804Z,355
2017-08-20T14:10:11.373Z,350
2017-08-20T14:11:23.897Z,355
2017-08-20T14:12:35.826Z,335
2017-08-20T14:13:48.459Z,325
2017-08-20T14:15:00.733Z,320
2017-08-20T14:16:12.951Z,320
2017-08-20T14:17:25.525Z,320
2017-08-20T14:18:37.552Z,315
2017-08-20T14:19:49.538Z,330
2017-08-20T14:21:01.817Z,365
2017-08-20T14:22:14.403Z,400
2017-08-20T14:23:26.360Z,390
2017-08-20T14:24:38.396Z,370
2017-08-20T14:25:50.617Z,360
2017-08-20T14:27:03.191Z,330
2017-08-20T14:28:15.486Z,385
2017-08-20T14:29:28.159Z,380
2017-08-20T14:30:40.734Z,400
2017-08-20T14:31:53.050Z,535
2017-08-20T14:33:05.620Z,645
2017-08-20T14:34:18.209Z,600
2017-08-20T14:35:30.561Z,480
2017-08-20T14:36:43.119Z,405
2017-08-20T14:37:55.080Z,385
2017-08-20T14:39:06.795Z,425
2017-08-20T14:40:19.369Z,585
2017-08-20T14:41:31.670Z,690
2017-08-20T14:42:43.990Z,695
2017-08-20T14:43:56.010Z,650
2017-08-20T14:45:07.663Z,655
2017-08-20T14:46:19.943Z,615
2017-08-20T14:47:32.493Z,530
2017-08-20T14:48:45.145Z,480
2017-08-20T14:49:56.815Z,455
2017-08-20T14:51:09.367Z,435
2017-08-20T14:52:21.996Z,435
2017-08-20T14:53:34.301Z,435
2017-08-20T14:54:46.594Z,440
2017-08-20T14:55:58.524Z,405
2017-08-20T14:57:11.088Z,385
2017-08-20T14:58:23.430Z,370
2017-08-20T14:59:35.755Z,380
2017-08-20T15:00:47.765Z,395
2017-08-20T15:02:00.109Z,400
2017-08-20T15:03:12.405Z,430
2017-08-20T15:04:24.752Z,410
2017-08-20T15:05:37.345Z,400
2017-08-20T15:06:49.635Z,390
2017-08-20T15:08:02.242Z,340
2017-08-20T15:09:14.200Z,305
2017-08-20T15:10:26.441Z,290
2017-08-20T15:11:39.001Z,290
2017-08-20T15:12:51.571Z,315
2017-08-20T15:14:03.839Z,330
2017-08-20T15:15:16.115Z,355
2017-08-20T15:16:28.490Z,390
2017-08-20T15:17:40.806Z,435
2017-08-20T15:18:53.650Z,490
2017-08-20T15:20:06.222Z,530
2017-08-20T15:21:18.469Z,540
2017-08-20T15:22:30.763Z,535
2017-08-20T15:23:42.705Z,515
2017-08-20T15:24:54.976Z,465
2017-08-20T15:26:06.948Z,395
2017-08-20T15:27:19.604Z,340
2017-08-20T15:28:32.221Z,295
2017-08-20T15:29:44.546Z,265
2017-08-20T15:30:56.780Z,250
2017-08-20T15:32:09.393Z,240
2017-08-20T15:33:22.007Z,230
2017-08-20T15:34:34.574Z,225
2017-08-20T15:35:46.591Z,215
2017-08-20T15:36:58.834Z,215
2017-08-20T15:38:11.080Z,210
2017-08-20T15:39:23.387Z,215
2017-08-20T15:40:35.649Z,215
2017-08-20T15:41:47.995Z,210
2017-08-20T15:43:00.598Z,210
2017-08-20T15:44:13.210Z,205
2017-08-20T15:45:25.755Z,205
2017-08-20T15:46:38.403Z,210
2017-08-20T15:47:50.361Z,210
2017-08-20T15:49:02.991Z,215
2017-08-20T15:50:15.568Z,210
2017-08-20T15:51:27.530Z,210
2017-08-20T15:52:39.871Z,210
2017-08-20T15:53:51.841Z,210
2017-08-20T15:55:04.135Z,200
2017-08-20T15:56:16.450Z,200
2017-08-20T15:57:29.008Z,200
2017-08-20T15:58:41.659Z,205
2017-08-20T15:59:54.236Z,200
2017-08-20T16:01:06.522Z,200
2017-08-20T16:02:18.451Z,195
2017-08-20T16:03:30.738Z,190
2017-08-20T16:04:43.331Z,200
2017-08-20T16:05:55.881Z,190
2017-08-20T16:07:07.530Z,185
2017-08-20T16:08:19.872Z,185
2017-08-20T16:09:32.451Z,190
2017-08-20T16:10:45.011Z,185
2017-08-20T16:11:56.945Z,180
2017-08-20T16:13:09.558Z,175
2017-08-20T16:14:21.512Z,170
2017-08-20T16:15:34.151Z,170
2017-08-20T16:16:46.676Z,170
2017-08-20T16:17:58.967Z,170
2017-08-20T16:19:11.212Z,165
2017-08-20T16:20:23.510Z,165
2017-08-20T16:21:35.797Z,165
2017-08-20T16:22:48.028Z,160
2017-08-20T16:24:00.631Z,160
2017-08-20T16:25:12.858Z,155
2017-08-20T16:26:25.111Z,150
2017-08-20T16:27:37.701Z,145
2017-08-20T16:28:50.313Z,140
2017-08-20T16:30:02.550Z,140
2017-08-20T16:31:15.180Z,130
2017-08-20T16:32:27.792Z,130
2017-08-20T16:33:39.530Z,125
2017-08-20T16:34:52.152Z,120
2017-08-20T16:36:04.787Z,115
2017-08-20T16:37:17.128Z,110
2017-08-20T16:38:29.772Z,115
2017-08-20T16:39:41.744Z,110
2017-08-20T16:40:53.763Z,100
2017-08-20T16:42:06.049Z,95
2017-08-20T16:43:17.698Z,95
2017-08-20T16:44:30.246Z,95
2017-08-20T16:45:42.560Z,100
2017-08-20T16:46:55.137Z,95
2017-08-20T16:48:07.111Z,95
2017-08-20T16:49:19.677Z,90